sensor_id;sensor_type;location;lat;lon;timestamp;P1;durP1;ratioP1;P2;durP2;ratioP2
7729;SDS011;3908;52.310;7.230;2023-03-13T00:01:33;24.77;;;4.87;;
7729;SDS011;3908;52.310;7.230;2023-03-13T00:04:22;24.27;;;4.67;;
7729;SDS011;3908;52.310;7.230;2023-03-13T00:07:09;18.80;;;4.00;;
7729;SDS011;3908;52.310;7.230;2023-03-13T00:09:56;19.43;;;5.27;;
7729;SDS011;3908;52.310;7.230;2023-03-13T00:12:42;24.07;;;5.13;;
7729;SDS011;3908;52.310;7.230;2023-03-13T00:15:29;14.43;;;4.03;;
7729;SDS011;3908;52.310;7.230;2023-03-13T00:18:16;20.77;;;4.50;;
7729;SDS011;3908;52.310;7.230;2023-03-13T00:21:05;20.57;;;4.10;;
7729;SDS011;3908;52.310;7.230;2023-03-13T00:23:52;24.80;;;4.97;;
7729;SDS011;3908;52.310;7.230;2023-03-13T00:26:39;19.10;;;4.17;;
7729;SDS011;3908;52.310;7.230;2023-03-13T00:29:26;15.27;;;3.87;;
7729;SDS011;3908;52.310;7.230;2023-03-13T00:32:13;20.33;;;4.33;;
7729;SDS011;3908;52.310;7.230;2023-03-13T00:35:00;14.17;;;4.33;;
7729;SDS011;3908;52.310;7.230;2023-03-13T00:37:48;13.93;;;4.43;;
7729;SDS011;3908;52.310;7.230;2023-03-13T00:40:35;25.43;;;4.40;;
7729;SDS011;3908;52.310;7.230;2023-03-13T00:43:22;16.23;;;3.87;;
7729;SDS011;3908;52.310;7.230;2023-03-13T00:46:09;22.00;;;4.10;;
7729;SDS011;3908;52.310;7.230;2023-03-13T00:48:56;22.33;;;5.30;;
7729;SDS011;3908;52.310;7.230;2023-03-13T00:51:43;23.43;;;4.97;;
7729;SDS011;3908;52.310;7.230;2023-03-13T00:54:31;19.37;;;4.23;;
7729;SDS011;3908;52.310;7.230;2023-03-13T00:57:18;19.13;;;4.63;;
7729;SDS011;3908;52.310;7.230;2023-03-13T01:00:05;20.17;;;4.57;;
7729;SDS011;3908;52.310;7.230;2023-03-13T01:02:52;13.63;;;4.13;;
7729;SDS011;3908;52.310;7.230;2023-03-13T01:05:39;22.17;;;4.60;;
7729;SDS011;3908;52.310;7.230;2023-03-13T01:08:27;18.93;;;4.63;;
7729;SDS011;3908;52.310;7.230;2023-03-13T01:11:16;22.87;;;3.93;;
7729;SDS011;3908;52.310;7.230;2023-03-13T01:14:05;19.10;;;4.70;;
7729;SDS011;3908;52.310;7.230;2023-03-13T01:16:52;21.00;;;4.63;;
7729;SDS011;3908;52.310;7.230;2023-03-13T01:19:39;16.50;;;4.03;;
7729;SDS011;3908;52.310;7.230;2023-03-13T01:22:26;18.80;;;4.57;;
7729;SDS011;3908;52.310;7.230;2023-03-13T01:25:13;20.00;;;4.50;;
7729;SDS011;3908;52.310;7.230;2023-03-13T01:28:02;20.07;;;3.93;;
7729;SDS011;3908;52.310;7.230;2023-03-13T01:30:49;22.50;;;4.60;;
7729;SDS011;3908;52.310;7.230;2023-03-13T01:33:35;21.60;;;4.03;;
7729;SDS011;3908;52.310;7.230;2023-03-13T01:36:22;23.07;;;4.70;;
7729;SDS011;3908;52.310;7.230;2023-03-13T01:39:09;22.43;;;4.50;;
7729;SDS011;3908;52.310;7.230;2023-03-13T01:41:56;17.77;;;3.93;;
7729;SDS011;3908;52.310;7.230;2023-03-13T01:44:49;28.20;;;4.63;;
7729;SDS011;3908;52.310;7.230;2023-03-13T01:47:37;22.73;;;4.33;;
7729;SDS011;3908;52.310;7.230;2023-03-13T01:50:23;23.70;;;4.93;;
7729;SDS011;3908;52.310;7.230;2023-03-13T01:53:10;23.03;;;4.30;;
7729;SDS011;3908;52.310;7.230;2023-03-13T01:55:57;32.90;;;4.97;;
7729;SDS011;3908;52.310;7.230;2023-03-13T01:58:46;23.77;;;4.73;;
7729;SDS011;3908;52.310;7.230;2023-03-13T02:01:34;19.40;;;3.50;;
7729;SDS011;3908;52.310;7.230;2023-03-13T02:04:21;16.13;;;3.57;;
7729;SDS011;3908;52.310;7.230;2023-03-13T02:07:09;18.03;;;4.40;;
7729;SDS011;3908;52.310;7.230;2023-03-13T02:09:58;23.20;;;4.23;;
7729;SDS011;3908;52.310;7.230;2023-03-13T02:12:45;20.43;;;4.33;;
7729;SDS011;3908;52.310;7.230;2023-03-13T02:15:32;19.63;;;3.90;;
7729;SDS011;3908;52.310;7.230;2023-03-13T02:18:21;17.57;;;4.90;;
7729;SDS011;3908;52.310;7.230;2023-03-13T02:21:11;15.80;;;4.27;;
7729;SDS011;3908;52.310;7.230;2023-03-13T02:24:01;23.90;;;4.77;;
7729;SDS011;3908;52.310;7.230;2023-03-13T02:26:49;16.07;;;4.23;;
7729;SDS011;3908;52.310;7.230;2023-03-13T02:29:36;19.73;;;5.30;;
7729;SDS011;3908;52.310;7.230;2023-03-13T02:32:23;19.27;;;5.30;;
7729;SDS011;3908;52.310;7.230;2023-03-13T02:35:11;23.33;;;5.73;;
7729;SDS011;3908;52.310;7.230;2023-03-13T02:37:59;23.30;;;5.80;;
7729;SDS011;3908;52.310;7.230;2023-03-13T02:40:47;22.00;;;5.70;;
7729;SDS011;3908;52.310;7.230;2023-03-13T02:43:37;18.47;;;5.70;;
7729;SDS011;3908;52.310;7.230;2023-03-13T02:46:24;23.70;;;6.47;;
7729;SDS011;3908;52.310;7.230;2023-03-13T02:49:22;15.80;;;6.00;;
7729;SDS011;3908;52.310;7.230;2023-03-13T02:52:10;17.20;;;6.17;;
7729;SDS011;3908;52.310;7.230;2023-03-13T02:54:59;12.77;;;6.17;;
7729;SDS011;3908;52.310;7.230;2023-03-13T02:57:47;20.67;;;6.80;;
7729;SDS011;3908;52.310;7.230;2023-03-13T03:00:37;13.93;;;5.90;;
7729;SDS011;3908;52.310;7.230;2023-03-13T03:03:24;16.10;;;6.33;;
7729;SDS011;3908;52.310;7.230;2023-03-13T03:06:12;16.00;;;5.80;;
7729;SDS011;3908;52.310;7.230;2023-03-13T03:08:59;15.50;;;6.07;;
7729;SDS011;3908;52.310;7.230;2023-03-13T03:11:46;16.63;;;6.63;;
7729;SDS011;3908;52.310;7.230;2023-03-13T03:14:33;14.20;;;6.93;;
7729;SDS011;3908;52.310;7.230;2023-03-13T03:17:22;18.20;;;6.73;;
7729;SDS011;3908;52.310;7.230;2023-03-13T03:20:10;14.27;;;7.20;;
7729;SDS011;3908;52.310;7.230;2023-03-13T03:22:57;15.03;;;7.47;;
7729;SDS011;3908;52.310;7.230;2023-03-13T03:25:44;15.80;;;7.33;;
7729;SDS011;3908;52.310;7.230;2023-03-13T03:28:30;15.80;;;7.63;;
7729;SDS011;3908;52.310;7.230;2023-03-13T03:31:17;16.07;;;7.70;;
7729;SDS011;3908;52.310;7.230;2023-03-13T03:34:06;17.57;;;7.67;;
7729;SDS011;3908;52.310;7.230;2023-03-13T03:36:52;15.80;;;7.90;;
7729;SDS011;3908;52.310;7.230;2023-03-13T03:39:39;11.37;;;7.93;;
7729;SDS011;3908;52.310;7.230;2023-03-13T03:42:26;15.37;;;7.83;;
7729;SDS011;3908;52.310;7.230;2023-03-13T03:45:13;18.10;;;8.87;;
7729;SDS011;3908;52.310;7.230;2023-03-13T03:47:59;15.60;;;8.60;;
7729;SDS011;3908;52.310;7.230;2023-03-13T03:50:48;15.07;;;8.00;;
7729;SDS011;3908;52.310;7.230;2023-03-13T03:53:34;14.27;;;8.00;;
7729;SDS011;3908;52.310;7.230;2023-03-13T03:56:21;12.87;;;7.43;;
7729;SDS011;3908;52.310;7.230;2023-03-13T03:59:08;10.10;;;7.67;;
7729;SDS011;3908;52.310;7.230;2023-03-13T04:01:55;14.57;;;7.33;;
7729;SDS011;3908;52.310;7.230;2023-03-13T04:04:41;11.97;;;6.87;;
7729;SDS011;3908;52.310;7.230;2023-03-13T04:07:30;13.20;;;6.13;;
7729;SDS011;3908;52.310;7.230;2023-03-13T04:10:17;8.90;;;6.20;;
7729;SDS011;3908;52.310;7.230;2023-03-13T04:13:03;13.00;;;6.93;;
7729;SDS011;3908;52.310;7.230;2023-03-13T04:15:50;10.93;;;6.03;;
7729;SDS011;3908;52.310;7.230;2023-03-13T04:18:37;11.37;;;5.77;;
7729;SDS011;3908;52.310;7.230;2023-03-13T04:21:24;11.87;;;5.50;;
7729;SDS011;3908;52.310;7.230;2023-03-13T04:24:12;9.07;;;5.53;;
7729;SDS011;3908;52.310;7.230;2023-03-13T04:26:59;16.10;;;5.30;;
7729;SDS011;3908;52.310;7.230;2023-03-13T04:29:46;7.27;;;4.73;;
7729;SDS011;3908;52.310;7.230;2023-03-13T04:32:33;11.97;;;5.43;;
7729;SDS011;3908;52.310;7.230;2023-03-13T04:35:20;9.73;;;4.70;;
7729;SDS011;3908;52.310;7.230;2023-03-13T04:38:07;10.67;;;4.40;;
7729;SDS011;3908;52.310;7.230;2023-03-13T04:40:55;9.23;;;4.60;;
7729;SDS011;3908;52.310;7.230;2023-03-13T04:43:42;6.00;;;4.17;;
7729;SDS011;3908;52.310;7.230;2023-03-13T04:46:29;9.53;;;4.50;;
7729;SDS011;3908;52.310;7.230;2023-03-13T04:49:15;8.37;;;4.27;;
7729;SDS011;3908;52.310;7.230;2023-03-13T04:52:02;8.43;;;4.10;;
7729;SDS011;3908;52.310;7.230;2023-03-13T04:54:49;7.33;;;3.97;;
7729;SDS011;3908;52.310;7.230;2023-03-13T04:57:37;7.63;;;3.97;;
7729;SDS011;3908;52.310;7.230;2023-03-13T05:00:24;5.70;;;3.60;;
7729;SDS011;3908;52.310;7.230;2023-03-13T05:03:11;6.87;;;4.43;;
7729;SDS011;3908;52.310;7.230;2023-03-13T05:05:58;5.43;;;3.80;;
7729;SDS011;3908;52.310;7.230;2023-03-13T05:08:45;8.20;;;3.90;;
7729;SDS011;3908;52.310;7.230;2023-03-13T05:11:32;4.77;;;3.87;;
7729;SDS011;3908;52.310;7.230;2023-03-13T05:14:20;10.87;;;4.50;;
7729;SDS011;3908;52.310;7.230;2023-03-13T05:17:07;7.93;;;4.33;;
7729;SDS011;3908;52.310;7.230;2023-03-13T05:19:55;8.83;;;4.73;;
7729;SDS011;3908;52.310;7.230;2023-03-13T05:22:42;6.57;;;4.37;;
7729;SDS011;3908;52.310;7.230;2023-03-13T05:25:28;5.80;;;4.17;;
7729;SDS011;3908;52.310;7.230;2023-03-13T05:28:15;6.10;;;4.97;;
7729;SDS011;3908;52.310;7.230;2023-03-13T05:31:03;6.17;;;3.90;;
7729;SDS011;3908;52.310;7.230;2023-03-13T05:33:50;10.70;;;3.83;;
7729;SDS011;3908;52.310;7.230;2023-03-13T05:36:37;10.57;;;4.33;;
7729;SDS011;3908;52.310;7.230;2023-03-13T05:39:24;6.57;;;4.17;;
7729;SDS011;3908;52.310;7.230;2023-03-13T05:42:10;7.97;;;4.17;;
7729;SDS011;3908;52.310;7.230;2023-03-13T05:44:57;6.77;;;4.77;;
7729;SDS011;3908;52.310;7.230;2023-03-13T05:47:46;6.80;;;4.70;;
7729;SDS011;3908;52.310;7.230;2023-03-13T05:50:32;6.93;;;4.43;;
7729;SDS011;3908;52.310;7.230;2023-03-13T05:53:19;10.17;;;5.00;;
7729;SDS011;3908;52.310;7.230;2023-03-13T05:56:06;7.23;;;4.53;;
7729;SDS011;3908;52.310;7.230;2023-03-13T05:58:53;7.40;;;5.13;;
7729;SDS011;3908;52.310;7.230;2023-03-13T06:01:40;7.17;;;4.93;;
7729;SDS011;3908;52.310;7.230;2023-03-13T06:04:28;8.33;;;5.20;;
7729;SDS011;3908;52.310;7.230;2023-03-13T06:07:15;9.17;;;5.47;;
7729;SDS011;3908;52.310;7.230;2023-03-13T06:10:02;9.67;;;6.17;;
7729;SDS011;3908;52.310;7.230;2023-03-13T06:12:52;10.63;;;5.67;;
7729;SDS011;3908;52.310;7.230;2023-03-13T06:15:39;10.53;;;6.33;;
7729;SDS011;3908;52.310;7.230;2023-03-13T06:18:26;9.83;;;6.10;;
7729;SDS011;3908;52.310;7.230;2023-03-13T06:21:14;10.17;;;6.17;;
7729;SDS011;3908;52.310;7.230;2023-03-13T06:24:01;10.30;;;6.07;;
7729;SDS011;3908;52.310;7.230;2023-03-13T06:26:48;10.47;;;6.53;;
7729;SDS011;3908;52.310;7.230;2023-03-13T06:29:35;11.20;;;6.97;;
7729;SDS011;3908;52.310;7.230;2023-03-13T06:32:22;12.67;;;7.17;;
7729;SDS011;3908;52.310;7.230;2023-03-13T06:35:09;14.93;;;6.87;;
7729;SDS011;3908;52.310;7.230;2023-03-13T06:37:57;8.53;;;6.77;;
7729;SDS011;3908;52.310;7.230;2023-03-13T06:40:44;11.60;;;6.90;;
7729;SDS011;3908;52.310;7.230;2023-03-13T06:43:30;14.10;;;6.63;;
7729;SDS011;3908;52.310;7.230;2023-03-13T06:46:18;16.57;;;7.00;;
7729;SDS011;3908;52.310;7.230;2023-03-13T06:49:06;12.40;;;7.20;;
7729;SDS011;3908;52.310;7.230;2023-03-13T06:51:55;8.83;;;6.73;;
7729;SDS011;3908;52.310;7.230;2023-03-13T06:54:44;9.40;;;5.87;;
7729;SDS011;3908;52.310;7.230;2023-03-13T06:57:30;12.37;;;6.50;;
7729;SDS011;3908;52.310;7.230;2023-03-13T07:00:18;15.90;;;6.70;;
7729;SDS011;3908;52.310;7.230;2023-03-13T07:03:04;11.37;;;6.70;;
7729;SDS011;3908;52.310;7.230;2023-03-13T07:05:54;12.10;;;6.37;;
7729;SDS011;3908;52.310;7.230;2023-03-13T07:08:41;13.83;;;7.00;;
7729;SDS011;3908;52.310;7.230;2023-03-13T07:11:29;10.93;;;6.33;;
7729;SDS011;3908;52.310;7.230;2023-03-13T07:14:16;12.30;;;6.93;;
7729;SDS011;3908;52.310;7.230;2023-03-13T07:17:03;11.90;;;5.80;;
7729;SDS011;3908;52.310;7.230;2023-03-13T07:19:50;11.67;;;6.40;;
7729;SDS011;3908;52.310;7.230;2023-03-13T07:22:37;12.83;;;6.37;;
7729;SDS011;3908;52.310;7.230;2023-03-13T07:25:23;10.67;;;5.70;;
7729;SDS011;3908;52.310;7.230;2023-03-13T07:28:11;12.97;;;6.00;;
7729;SDS011;3908;52.310;7.230;2023-03-13T07:31:02;9.53;;;5.77;;
7729;SDS011;3908;52.310;7.230;2023-03-13T07:33:49;9.33;;;6.00;;
7729;SDS011;3908;52.310;7.230;2023-03-13T07:36:38;13.63;;;5.90;;
7729;SDS011;3908;52.310;7.230;2023-03-13T07:39:25;8.17;;;6.07;;
7729;SDS011;3908;52.310;7.230;2023-03-13T07:42:12;9.83;;;5.50;;
7729;SDS011;3908;52.310;7.230;2023-03-13T07:45:01;11.67;;;5.47;;
7729;SDS011;3908;52.310;7.230;2023-03-13T07:47:48;9.87;;;5.73;;
7729;SDS011;3908;52.310;7.230;2023-03-13T07:50:35;9.80;;;6.17;;
7729;SDS011;3908;52.310;7.230;2023-03-13T07:53:22;9.07;;;4.80;;
7729;SDS011;3908;52.310;7.230;2023-03-13T07:56:10;8.43;;;5.10;;
7729;SDS011;3908;52.310;7.230;2023-03-13T07:58:56;8.73;;;5.00;;
7729;SDS011;3908;52.310;7.230;2023-03-13T08:01:45;8.90;;;4.37;;
7729;SDS011;3908;52.310;7.230;2023-03-13T08:04:32;10.30;;;5.27;;
7729;SDS011;3908;52.310;7.230;2023-03-13T08:07:18;9.97;;;4.40;;
7729;SDS011;3908;52.310;7.230;2023-03-13T08:10:06;8.83;;;4.50;;
7729;SDS011;3908;52.310;7.230;2023-03-13T08:12:53;8.87;;;4.47;;
7729;SDS011;3908;52.310;7.230;2023-03-13T08:15:39;9.23;;;3.90;;
7729;SDS011;3908;52.310;7.230;2023-03-13T08:18:28;10.93;;;4.30;;
7729;SDS011;3908;52.310;7.230;2023-03-13T08:21:19;7.23;;;3.80;;
7729;SDS011;3908;52.310;7.230;2023-03-13T08:24:07;9.10;;;4.43;;
7729;SDS011;3908;52.310;7.230;2023-03-13T08:26:55;11.90;;;3.80;;
7729;SDS011;3908;52.310;7.230;2023-03-13T08:29:42;9.90;;;4.33;;
7729;SDS011;3908;52.310;7.230;2023-03-13T08:32:31;9.00;;;3.63;;
7729;SDS011;3908;52.310;7.230;2023-03-13T08:35:19;5.07;;;3.07;;
7729;SDS011;3908;52.310;7.230;2023-03-13T08:38:06;5.93;;;3.70;;
7729;SDS011;3908;52.310;7.230;2023-03-13T08:40:55;10.67;;;4.07;;
7729;SDS011;3908;52.310;7.230;2023-03-13T08:43:42;7.80;;;3.33;;
7729;SDS011;3908;52.310;7.230;2023-03-13T08:46:29;11.20;;;4.20;;
7729;SDS011;3908;52.310;7.230;2023-03-13T08:49:16;7.90;;;3.47;;
7729;SDS011;3908;52.310;7.230;2023-03-13T08:52:05;5.17;;;3.07;;
7729;SDS011;3908;52.310;7.230;2023-03-13T08:54:52;6.07;;;2.97;;
7729;SDS011;3908;52.310;7.230;2023-03-13T08:57:39;7.70;;;3.70;;
7729;SDS011;3908;52.310;7.230;2023-03-13T09:00:25;7.50;;;3.10;;
7729;SDS011;3908;52.310;7.230;2023-03-13T09:03:12;7.13;;;3.40;;
7729;SDS011;3908;52.310;7.230;2023-03-13T09:06:00;5.17;;;3.10;;
7729;SDS011;3908;52.310;7.230;2023-03-13T09:08:49;7.33;;;3.23;;
7729;SDS011;3908;52.310;7.230;2023-03-13T09:11:36;9.33;;;3.40;;
7729;SDS011;3908;52.310;7.230;2023-03-13T09:14:25;7.80;;;3.50;;
7729;SDS011;3908;52.310;7.230;2023-03-13T09:17:12;7.93;;;2.90;;
7729;SDS011;3908;52.310;7.230;2023-03-13T09:19:59;10.97;;;3.57;;
7729;SDS011;3908;52.310;7.230;2023-03-13T09:22:46;9.63;;;3.47;;
7729;SDS011;3908;52.310;7.230;2023-03-13T09:25:36;10.60;;;3.50;;
7729;SDS011;3908;52.310;7.230;2023-03-13T09:28:24;6.30;;;3.17;;
7729;SDS011;3908;52.310;7.230;2023-03-13T09:31:12;6.00;;;2.50;;
7729;SDS011;3908;52.310;7.230;2023-03-13T09:33:59;6.17;;;2.90;;
7729;SDS011;3908;52.310;7.230;2023-03-13T09:36:46;7.60;;;3.10;;
7729;SDS011;3908;52.310;7.230;2023-03-13T09:39:33;5.87;;;2.57;;
7729;SDS011;3908;52.310;7.230;2023-03-13T09:42:23;7.37;;;2.67;;
7729;SDS011;3908;52.310;7.230;2023-03-13T09:45:15;5.60;;;2.87;;
7729;SDS011;3908;52.310;7.230;2023-03-13T09:48:03;6.27;;;3.17;;
7729;SDS011;3908;52.310;7.230;2023-03-13T09:50:54;8.03;;;2.73;;
7729;SDS011;3908;52.310;7.230;2023-03-13T09:53:45;9.13;;;3.27;;
7729;SDS011;3908;52.310;7.230;2023-03-13T09:56:36;4.37;;;2.90;;
7729;SDS011;3908;52.310;7.230;2023-03-13T09:59:28;4.93;;;2.40;;
7729;SDS011;3908;52.310;7.230;2023-03-13T10:02:21;5.67;;;3.07;;
7729;SDS011;3908;52.310;7.230;2023-03-13T10:05:11;9.73;;;3.33;;
7729;SDS011;3908;52.310;7.230;2023-03-13T10:08:01;5.43;;;2.30;;
7729;SDS011;3908;52.310;7.230;2023-03-13T10:10:56;5.60;;;2.77;;
7729;SDS011;3908;52.310;7.230;2023-03-13T10:13:45;7.67;;;2.50;;
7729;SDS011;3908;52.310;7.230;2023-03-13T10:16:36;6.33;;;2.97;;
7729;SDS011;3908;52.310;7.230;2023-03-13T10:19:26;5.40;;;2.80;;
7729;SDS011;3908;52.310;7.230;2023-03-13T10:22:18;7.53;;;2.77;;
7729;SDS011;3908;52.310;7.230;2023-03-13T10:25:05;9.33;;;3.70;;
7729;SDS011;3908;52.310;7.230;2023-03-13T10:27:54;4.10;;;1.90;;
7729;SDS011;3908;52.310;7.230;2023-03-13T10:30:45;5.07;;;2.40;;
7729;SDS011;3908;52.310;7.230;2023-03-13T10:33:34;3.87;;;1.80;;
7729;SDS011;3908;52.310;7.230;2023-03-13T10:36:22;4.47;;;1.77;;
7729;SDS011;3908;52.310;7.230;2023-03-13T10:39:13;2.77;;;1.57;;
7729;SDS011;3908;52.310;7.230;2023-03-13T10:42:07;7.23;;;1.90;;
7729;SDS011;3908;52.310;7.230;2023-03-13T10:44:57;4.83;;;2.00;;
7729;SDS011;3908;52.310;7.230;2023-03-13T10:47:44;6.17;;;2.27;;
7729;SDS011;3908;52.310;7.230;2023-03-13T10:50:33;3.87;;;1.63;;
7729;SDS011;3908;52.310;7.230;2023-03-13T10:53:22;4.83;;;1.77;;
7729;SDS011;3908;52.310;7.230;2023-03-13T10:56:11;3.23;;;1.60;;
7729;SDS011;3908;52.310;7.230;2023-03-13T10:58:58;4.83;;;1.83;;
7729;SDS011;3908;52.310;7.230;2023-03-13T11:01:45;4.80;;;1.90;;
7729;SDS011;3908;52.310;7.230;2023-03-13T11:04:34;3.70;;;1.80;;
7729;SDS011;3908;52.310;7.230;2023-03-13T11:07:26;5.00;;;2.17;;
7729;SDS011;3908;52.310;7.230;2023-03-13T11:10:16;6.20;;;2.10;;
7729;SDS011;3908;52.310;7.230;2023-03-13T11:13:04;4.27;;;2.47;;
7729;SDS011;3908;52.310;7.230;2023-03-13T11:15:51;3.97;;;1.93;;
7729;SDS011;3908;52.310;7.230;2023-03-13T11:18:43;5.67;;;1.97;;
7729;SDS011;3908;52.310;7.230;2023-03-13T11:21:37;6.50;;;2.07;;
7729;SDS011;3908;52.310;7.230;2023-03-13T11:24:27;5.13;;;1.60;;
7729;SDS011;3908;52.310;7.230;2023-03-13T11:27:20;5.33;;;2.00;;
7729;SDS011;3908;52.310;7.230;2023-03-13T11:30:17;5.13;;;2.10;;
7729;SDS011;3908;52.310;7.230;2023-03-13T11:33:09;3.57;;;1.90;;
7729;SDS011;3908;52.310;7.230;2023-03-13T11:35:59;4.87;;;1.90;;
7729;SDS011;3908;52.310;7.230;2023-03-13T11:38:47;4.03;;;1.80;;
7729;SDS011;3908;52.310;7.230;2023-03-13T11:41:41;7.47;;;2.50;;
7729;SDS011;3908;52.310;7.230;2023-03-13T11:44:29;3.57;;;2.13;;
7729;SDS011;3908;52.310;7.230;2023-03-13T11:47:21;3.03;;;2.40;;
7729;SDS011;3908;52.310;7.230;2023-03-13T11:53:18;7.40;;;2.30;;
7729;SDS011;3908;52.310;7.230;2023-03-13T11:56:09;6.17;;;2.43;;
7729;SDS011;3908;52.310;7.230;2023-03-13T11:59:03;4.13;;;2.00;;
7729;SDS011;3908;52.310;7.230;2023-03-13T12:01:53;3.83;;;2.03;;
7729;SDS011;3908;52.310;7.230;2023-03-13T12:04:42;10.47;;;2.43;;
7729;SDS011;3908;52.310;7.230;2023-03-13T12:07:30;4.00;;;1.53;;
7729;SDS011;3908;52.310;7.230;2023-03-13T12:10:18;4.40;;;2.00;;
7729;SDS011;3908;52.310;7.230;2023-03-13T12:13:07;4.33;;;1.53;;
7729;SDS011;3908;52.310;7.230;2023-03-13T12:15:57;3.50;;;1.87;;
7729;SDS011;3908;52.310;7.230;2023-03-13T12:18:45;2.13;;;1.57;;
7729;SDS011;3908;52.310;7.230;2023-03-13T12:21:32;3.33;;;1.30;;
7729;SDS011;3908;52.310;7.230;2023-03-13T12:24:25;2.30;;;1.70;;
7729;SDS011;3908;52.310;7.230;2023-03-13T12:27:13;4.53;;;1.50;;
7729;SDS011;3908;52.310;7.230;2023-03-13T12:30:02;5.40;;;2.13;;
7729;SDS011;3908;52.310;7.230;2023-03-13T12:32:55;2.50;;;1.60;;
7729;SDS011;3908;52.310;7.230;2023-03-13T12:35:43;5.10;;;1.43;;
7729;SDS011;3908;52.310;7.230;2023-03-13T12:38:33;1.70;;;1.30;;
7729;SDS011;3908;52.310;7.230;2023-03-13T12:41:23;2.33;;;1.40;;
7729;SDS011;3908;52.310;7.230;2023-03-13T12:44:13;4.53;;;1.60;;
7729;SDS011;3908;52.310;7.230;2023-03-13T12:47:03;2.33;;;1.50;;
7729;SDS011;3908;52.310;7.230;2023-03-13T12:53:09;4.37;;;1.80;;
7729;SDS011;3908;52.310;7.230;2023-03-13T12:56:19;4.50;;;1.70;;
7729;SDS011;3908;52.310;7.230;2023-03-13T12:59:12;3.97;;;1.70;;
7729;SDS011;3908;52.310;7.230;2023-03-13T13:02:01;4.03;;;1.57;;
7729;SDS011;3908;52.310;7.230;2023-03-13T13:04:49;3.83;;;1.60;;
7729;SDS011;3908;52.310;7.230;2023-03-13T13:07:37;3.73;;;1.80;;
7729;SDS011;3908;52.310;7.230;2023-03-13T13:10:26;4.00;;;1.73;;
7729;SDS011;3908;52.310;7.230;2023-03-13T13:13:16;2.87;;;1.50;;
7729;SDS011;3908;52.310;7.230;2023-03-13T13:16:04;6.10;;;1.80;;
7729;SDS011;3908;52.310;7.230;2023-03-13T13:18:52;2.80;;;1.50;;
7729;SDS011;3908;52.310;7.230;2023-03-13T13:21:39;5.50;;;1.67;;
7729;SDS011;3908;52.310;7.230;2023-03-13T13:27:47;2.97;;;1.40;;
7729;SDS011;3908;52.310;7.230;2023-03-13T13:30:35;2.50;;;1.40;;
7729;SDS011;3908;52.310;7.230;2023-03-13T13:36:30;2.00;;;1.40;;
7729;SDS011;3908;52.310;7.230;2023-03-13T13:39:31;2.13;;;1.40;;
7729;SDS011;3908;52.310;7.230;2023-03-13T13:42:37;3.53;;;1.40;;
7729;SDS011;3908;52.310;7.230;2023-03-13T13:45:30;4.93;;;1.60;;
7729;SDS011;3908;52.310;7.230;2023-03-13T13:48:24;3.50;;;1.20;;
7729;SDS011;3908;52.310;7.230;2023-03-13T13:51:22;3.20;;;1.70;;
7729;SDS011;3908;52.310;7.230;2023-03-13T13:57:11;4.00;;;1.70;;
7729;SDS011;3908;52.310;7.230;2023-03-13T14:00:00;3.10;;;1.73;;
7729;SDS011;3908;52.310;7.230;2023-03-13T14:02:52;3.87;;;1.60;;
7729;SDS011;3908;52.310;7.230;2023-03-13T14:05:40;4.50;;;1.40;;
7729;SDS011;3908;52.310;7.230;2023-03-13T14:08:27;1.83;;;1.40;;
7729;SDS011;3908;52.310;7.230;2023-03-13T14:11:20;6.80;;;1.70;;
7729;SDS011;3908;52.310;7.230;2023-03-13T14:14:08;2.87;;;1.60;;
7729;SDS011;3908;52.310;7.230;2023-03-13T14:16:56;3.93;;;1.50;;
7729;SDS011;3908;52.310;7.230;2023-03-13T14:19:44;3.17;;;1.80;;
7729;SDS011;3908;52.310;7.230;2023-03-13T14:22:43;3.33;;;1.57;;
7729;SDS011;3908;52.310;7.230;2023-03-13T14:25:40;4.20;;;1.87;;
7729;SDS011;3908;52.310;7.230;2023-03-13T14:28:28;6.03;;;1.53;;
7729;SDS011;3908;52.310;7.230;2023-03-13T14:31:22;2.50;;;1.30;;
7729;SDS011;3908;52.310;7.230;2023-03-13T14:34:10;5.07;;;1.50;;
7729;SDS011;3908;52.310;7.230;2023-03-13T14:37:00;1.43;;;1.17;;
7729;SDS011;3908;52.310;7.230;2023-03-13T14:39:47;4.90;;;1.30;;
7729;SDS011;3908;52.310;7.230;2023-03-13T14:42:37;5.53;;;1.40;;
7729;SDS011;3908;52.310;7.230;2023-03-13T14:45:26;2.13;;;1.40;;
7729;SDS011;3908;52.310;7.230;2023-03-13T14:48:16;5.93;;;1.47;;
7729;SDS011;3908;52.310;7.230;2023-03-13T14:51:07;3.20;;;1.50;;
7729;SDS011;3908;52.310;7.230;2023-03-13T14:53:57;4.37;;;1.63;;
7729;SDS011;3908;52.310;7.230;2023-03-13T14:56:44;2.20;;;1.40;;
7729;SDS011;3908;52.310;7.230;2023-03-13T14:59:31;5.03;;;1.97;;
7729;SDS011;3908;52.310;7.230;2023-03-13T15:02:20;3.87;;;1.40;;
7729;SDS011;3908;52.310;7.230;2023-03-13T15:08:10;2.77;;;1.30;;
7729;SDS011;3908;52.310;7.230;2023-03-13T15:11:00;3.33;;;1.50;;
7729;SDS011;3908;52.310;7.230;2023-03-13T15:13:47;2.90;;;1.30;;
7729;SDS011;3908;52.310;7.230;2023-03-13T15:16:37;1.93;;;1.23;;
7729;SDS011;3908;52.310;7.230;2023-03-13T15:19:27;3.07;;;1.37;;
7729;SDS011;3908;52.310;7.230;2023-03-13T15:22:14;3.70;;;1.53;;
7729;SDS011;3908;52.310;7.230;2023-03-13T15:25:02;1.90;;;1.47;;
7729;SDS011;3908;52.310;7.230;2023-03-13T15:27:50;6.97;;;1.67;;
7729;SDS011;3908;52.310;7.230;2023-03-13T15:30:37;3.37;;;1.50;;
7729;SDS011;3908;52.310;7.230;2023-03-13T15:33:25;3.10;;;1.83;;
7729;SDS011;3908;52.310;7.230;2023-03-13T15:36:12;3.63;;;1.70;;
7729;SDS011;3908;52.310;7.230;2023-03-13T15:38:59;3.37;;;1.50;;
7729;SDS011;3908;52.310;7.230;2023-03-13T15:41:46;2.60;;;1.70;;
7729;SDS011;3908;52.310;7.230;2023-03-13T15:44:34;3.50;;;1.63;;
7729;SDS011;3908;52.310;7.230;2023-03-13T15:47:21;2.33;;;1.40;;
7729;SDS011;3908;52.310;7.230;2023-03-13T15:50:09;5.07;;;1.70;;
7729;SDS011;3908;52.310;7.230;2023-03-13T15:52:57;2.57;;;1.30;;
7729;SDS011;3908;52.310;7.230;2023-03-13T15:55:45;4.13;;;1.50;;
7729;SDS011;3908;52.310;7.230;2023-03-13T15:58:32;3.27;;;1.20;;
7729;SDS011;3908;52.310;7.230;2023-03-13T16:01:21;2.83;;;1.20;;
7729;SDS011;3908;52.310;7.230;2023-03-13T16:04:08;3.10;;;1.47;;
7729;SDS011;3908;52.310;7.230;2023-03-13T16:06:55;3.07;;;1.37;;
7729;SDS011;3908;52.310;7.230;2023-03-13T16:09:42;3.80;;;1.53;;
7729;SDS011;3908;52.310;7.230;2023-03-13T16:12:29;3.57;;;1.50;;
7729;SDS011;3908;52.310;7.230;2023-03-13T16:15:16;2.23;;;1.70;;
7729;SDS011;3908;52.310;7.230;2023-03-13T16:18:04;2.23;;;1.30;;
7729;SDS011;3908;52.310;7.230;2023-03-13T16:20:51;2.30;;;1.20;;
7729;SDS011;3908;52.310;7.230;2023-03-13T16:23:38;4.30;;;1.50;;
7729;SDS011;3908;52.310;7.230;2023-03-13T16:26:26;1.63;;;1.20;;
7729;SDS011;3908;52.310;7.230;2023-03-13T16:29:14;1.67;;;1.33;;
7729;SDS011;3908;52.310;7.230;2023-03-13T16:32:01;3.10;;;1.50;;
7729;SDS011;3908;52.310;7.230;2023-03-13T16:34:50;5.13;;;2.00;;
7729;SDS011;3908;52.310;7.230;2023-03-13T16:37:37;2.33;;;1.53;;
7729;SDS011;3908;52.310;7.230;2023-03-13T16:40:25;6.37;;;1.80;;
7729;SDS011;3908;52.310;7.230;2023-03-13T16:43:12;4.47;;;1.50;;
7729;SDS011;3908;52.310;7.230;2023-03-13T16:45:59;4.87;;;1.97;;
7729;SDS011;3908;52.310;7.230;2023-03-13T16:48:47;3.83;;;1.57;;
7729;SDS011;3908;52.310;7.230;2023-03-13T16:51:35;5.53;;;1.50;;
7729;SDS011;3908;52.310;7.230;2023-03-13T16:54:22;4.10;;;1.80;;
7729;SDS011;3908;52.310;7.230;2023-03-13T16:57:09;4.37;;;2.00;;
7729;SDS011;3908;52.310;7.230;2023-03-13T16:59:57;6.90;;;1.93;;
7729;SDS011;3908;52.310;7.230;2023-03-13T17:02:44;8.43;;;3.87;;
7729;SDS011;3908;52.310;7.230;2023-03-13T17:05:31;3.27;;;1.83;;
7729;SDS011;3908;52.310;7.230;2023-03-13T17:08:19;4.20;;;1.80;;
7729;SDS011;3908;52.310;7.230;2023-03-13T17:11:07;4.73;;;1.87;;
7729;SDS011;3908;52.310;7.230;2023-03-13T17:13:57;6.03;;;1.80;;
7729;SDS011;3908;52.310;7.230;2023-03-13T17:16:44;3.10;;;1.60;;
7729;SDS011;3908;52.310;7.230;2023-03-13T17:19:40;3.77;;;1.63;;
7729;SDS011;3908;52.310;7.230;2023-03-13T17:22:27;3.43;;;1.63;;
7729;SDS011;3908;52.310;7.230;2023-03-13T17:25:17;1.50;;;1.40;;
7729;SDS011;3908;52.310;7.230;2023-03-13T17:28:05;4.57;;;1.80;;
7729;SDS011;3908;52.310;7.230;2023-03-13T17:30:52;9.13;;;2.60;;
7729;SDS011;3908;52.310;7.230;2023-03-13T17:33:39;4.57;;;1.50;;
7729;SDS011;3908;52.310;7.230;2023-03-13T17:36:27;2.27;;;1.40;;
7729;SDS011;3908;52.310;7.230;2023-03-13T17:39:14;2.63;;;1.40;;